Forest Grove, MT

10:37 AM MDT on July 28, 2014 (GMT -0600)
Billings Logan International (KBIL) Elev 3570 ft | 45.81 °N, 108.54 °W | Change Station

Current weather conditions updated 44 minutes ago

Partly Cloudy
Partly Cloudy
72 °F
Feels Like 72 °F
N
0
Wind Variable Wind from North

Today is forecast to be Cooler than yesterday.

Today
High -- | Low -- °F
--% Chance of Precip.
Yesterday
High -- | Low -- °F
Precip. -- in
5:51 AM 8:53 PM
Waxing Crescent, 3% visible
Pressure 30.19 in
Visibility 10.0 miles
Clouds Few 15000 ft
Dew Point 45 °F
Humidity 38%
Rainfall 0.00 in
Snow Depth Not available.
UV 5 out of 12
Pollen 6.30 out of 12
Air Quality Not available.
Flu Activity Not available.
METAR KBIL 281553Z 00000KT 10SM FEW150 22/07 A3028 RMK AO2 SLP223 T02220072

More Conditions Fewer Conditions

Pressure 30.19 in
Visibility 10.0 miles
Clouds Few 15000 ft
Dew Point 45 °F
Humidity 38%
Rainfall 0.00 in
Snow Depth Not available.
UV 5 out of 12
Pollen 6.30 out of 12
Air Quality Not available.
Flu Activity Not available.
METAR KBIL 281553Z 00000KT 10SM FEW150 22/07 A3028 RMK AO2 SLP223 T02220072

More Conditions Fewer Conditions

10-Day Weather Forecast

Almanac

Astronomy

Jul. 28, 2014 Rise Set
Actual Time 5:51 AM MDT 8:53 PM MDT
Civil Twilight 5:15 AM MDT 9:29 PM MDT
Nautical Twilight 4:28 AM MDT 10:15 PM MDT
Astronomical Twilight 3:32 AM MDT 11:11 PM MDT
Moon 7:46 AM MDT 9:24 PM MDT
Length of Visible Light 16h 13m
Length of Day
15h 02m
Tomorrow will be 2m 28s shorter.
Waxing Crescent, 3% of the Moon is Illuminated
Today
Waxing Crescent
Aug 3
First Quarter
Aug 10
Full
Aug 17
Last Quarter
Aug 25
New

Today's Extremes

State Highs State Lows

Community

WunderPhotos

Upload Photos

1,738,407 photos uploaded!

Nearby

Snow Depth

Station Depth Elevation
Porcupine 1 in 6500 ft
Stringer Creek 0 in 6550 ft
Cole Creek 0 in 7850 ft
Monument Peak 0 in 8850 ft
White Mill 1 in 8700 ft

Earthquake Activity

City Distance Mag. Time & Date
No recent earthquake activity has been reported nearby.
Minimum magnitude displayed is 2.5.

Coastal Water Temperatures

Place Temperature
No Stations Reporting

Nearby Weather Stations

Station Location Temp. Heat Index Dew Point Humidity Wind Precip. Elev Updated Type
RAWS LITTLE SNOWY MT, Forestgrove, MT 73 °F 77 °F 42 °F 33% ESE  at  5 mph 0.00 in / hr 4975 ft 9:40 AM MDT MADIS
3/4 mile S of Lewistown, Lewistown, Mt 77.3 °F 78 °F 49 °F 37% East  at  12.0 mph 0.00 in / hr 4189 ft 10:37 AM MDT Rapid Fire
3rd Ave S Lewistown, Lewistown, MT 63.6 °F - 50 °F 61% SSW  at  0.0 mph 0.00 in / hr 3927 ft 8:18 AM MDT Rapid Fire

Show More Stations Show Fewer Stations